Time;durP1;ratioP1;P1;durP2;ratioP2;P2;SDS_P1;SDS_P2;PMS_P1;PMS_P2;Temp;Humidity;BMP_temperature;BMP_pressure;BME280_temperature;BME280_humidity;BME280_pressure;Samples;Min_cycle;Max_cycle;Signal;HPM_P1;HPM_P2
2022/04/25 00:01:36;;;;;;;20.67;11.50;;;;;;;7.52;77.22;100766.81;5032662;28;20308;-54
2022/04/25 00:04:03;;;;;;;20.52;11.48;;;;;;;7.46;76.75;100759.72;5033359;28;20057;-54
2022/04/25 00:06:28;;;;;;;20.92;11.18;;;;;;;7.47;76.31;100759.44;5051141;28;20107;-53
2022/04/25 00:08:54;;;;;;;21.48;11.90;;;;;;;7.40;77.22;100767.19;5051787;28;20109;-56
2022/04/25 00:11:19;;;;;;;20.85;12.10;;;;;;;7.38;76.94;100766.66;5051635;28;20159;-54
2022/04/25 00:13:44;;;;;;;22.23;12.07;;;;;;;7.32;78.02;100770.56;5051567;28;20540;-54
2022/04/25 00:16:09;;;;;;;22.77;11.88;;;;;;;7.32;77.77;100770.56;5051265;28;20130;-54
2022/04/25 00:18:35;;;;;;;21.63;11.48;;;;;;;7.24;77.70;100771.16;5051029;28;20028;-54
2022/04/25 00:21:03;;;;;;;22.20;12.30;;;;;;;7.16;78.74;100765.16;5051080;28;20483;-52
2022/04/25 00:23:28;;;;;;;21.48;11.70;;;;;;;7.17;77.96;100768.72;5050932;28;20029;-52
2022/04/25 00:25:53;;;;;;;21.45;11.93;;;;;;;7.18;78.42;100773.09;5051904;28;20107;-54
2022/04/25 00:28:19;;;;;;;20.20;11.88;;;;;;;7.17;77.97;100777.00;5055007;28;20021;-50
2022/04/25 00:30:47;;;;;;;20.80;11.88;;;;;;;7.08;79.01;100778.69;5054873;28;20028;-53
2022/04/25 00:33:12;;;;;;;21.63;12.07;;;;;;;7.02;79.48;100775.97;5054909;28;20021;-53
2022/04/25 00:35:37;;;;;;;20.58;12.10;;;;;;;6.92;80.36;100780.69;5036814;28;20028;-54
2022/04/25 00:38:03;;;;;;;20.65;12.13;;;;;;;6.89;80.34;100773.00;5054456;28;20115;-53
2022/04/25 00:40:28;;;;;;;21.83;12.85;;;;;;;6.85;80.05;100767.25;5037015;28;20343;-53
2022/04/25 00:42:53;;;;;;;22.00;12.27;;;;;;;6.82;80.06;100776.91;5055026;28;20109;-54
2022/04/25 00:45:19;;;;;;;22.85;12.48;;;;;;;6.78;80.13;100781.31;5054991;28;20091;-54
2022/04/25 00:47:45;;;;;;;21.25;11.52;;;;;;;6.77;80.11;100767.84;5054764;28;20120;-54
2022/04/25 00:50:13;;;;;;;21.17;12.80;;;;;;;6.75;80.19;100775.56;5036666;28;20075;-51
2022/04/25 00:52:39;;;;;;;20.88;12.18;;;;;;;6.71;81.32;100775.28;5054791;28;20078;-53
2022/04/25 00:55:09;;;;;;;22.23;12.32;;;;;;;6.64;81.33;100772.84;5054435;28;20132;-55
2022/04/25 00:57:37;;;;;;;23.00;13.07;;;;;;;6.64;81.63;100769.28;5054823;28;20113;-54
2022/04/25 01:00:08;;;;;;;21.80;12.95;;;;;;;6.57;82.03;100769.59;5054731;28;20033;-54
2022/04/25 01:02:33;;;;;;;23.80;13.32;;;;;;;6.51;82.36;100774.28;5054837;28;20021;-52
2022/04/25 01:04:59;;;;;;;24.88;14.45;;;;;;;6.47;82.49;100775.13;5054970;28;20381;-53
2022/04/25 01:07:24;;;;;;;22.70;13.25;;;;;;;6.44;82.40;100778.41;5036733;28;20025;-51
2022/04/25 01:09:51;;;;;;;24.50;13.15;;;;;;;6.41;82.74;100766.06;5054096;28;20212;-53
2022/04/25 01:12:16;;;;;;;25.13;12.85;;;;;;;6.42;82.39;100780.66;5054333;28;20101;-54
2022/04/25 01:14:42;;;;;;;24.92;13.27;;;;;;;6.36;83.33;100775.16;5054414;28;20124;-54
2022/04/25 01:17:07;;;;;;;22.17;13.30;;;;;;;6.32;83.50;100765.84;5054764;28;20028;-53
2022/04/25 01:19:34;;;;;;;24.92;12.85;;;;;;;6.34;82.65;100774.59;5054338;28;20075;-54
2022/04/25 01:22:04;;;;;;;23.40;13.38;;;;;;;6.36;83.33;100774.34;5035716;28;20495;-53
2022/04/25 01:27:17;;;;;;;;;;;;;;;6.38;80.26;100766.63;5054392;28;20132;-54
2022/04/25 01:29:43;;;;;;;22.38;13.18;;;;;;;6.29;83.44;100760.03;5054259;28;20361;-53
2022/04/25 01:32:09;;;;;;;24.88;13.35;;;;;;;6.26;83.76;100771.63;5052779;28;20661;-53
2022/04/25 01:34:38;;;;;;;22.67;13.10;;;;;;;6.20;84.25;100774.34;5054107;28;20450;-52
2022/04/25 01:37:08;;;;;;;23.00;14.02;;;;;;;6.20;83.63;100771.63;5053180;28;20104;-53
2022/04/25 01:39:38;;;;;;;23.77;14.05;;;;;;;6.17;84.01;100766.69;5053883;28;20049;-55
2022/04/25 01:42:04;;;;;;;23.13;13.68;;;;;;;6.13;84.32;100771.09;5053770;28;20096;-53
2022/04/25 01:44:30;;;;;;;26.17;13.88;;;;;;;6.06;84.45;100768.63;5053675;28;20036;-53
2022/04/25 01:46:56;;;;;;;24.35;14.00;;;;;;;6.09;84.55;100768.06;5053495;28;20025;-54
2022/04/25 01:49:21;;;;;;;24.00;14.55;;;;;;;6.07;85.64;100772.22;5053448;28;20457;-54
2022/04/25 01:51:47;;;;;;;23.13;14.15;;;;;;;6.01;85.50;100776.88;5052998;28;20033;-52
2022/04/25 01:54:13;;;;;;;23.67;13.80;;;;;;;6.00;85.28;100779.91;5053592;28;20021;-53
2022/04/25 01:56:38;;;;;;;23.80;14.98;;;;;;;5.92;85.11;100771.09;5053251;28;20032;-53
2022/04/25 01:59:03;;;;;;;24.27;14.10;;;;;;;5.88;86.04;100760.94;5053093;28;20040;-52
2022/04/25 02:01:28;;;;;;;23.90;14.57;;;;;;;5.90;85.98;100777.97;5053266;28;20116;-52
2022/04/25 02:03:54;;;;;;;25.35;14.32;;;;;;;5.89;85.47;100776.31;5052923;28;20052;-53
2022/04/25 02:06:19;;;;;;;24.15;14.05;;;;;;;5.85;85.75;100772.50;5053285;28;20032;-54
2022/04/25 02:08:44;;;;;;;24.40;14.35;;;;;;;5.76;86.33;100775.75;5035079;28;20469;-54
2022/04/25 02:11:22;;;;;;;25.65;14.90;;;;;;;5.74;86.33;100777.97;5053081;28;20138;-54
2022/04/25 02:13:54;;;;;;;25.15;14.32;;;;;;;5.76;86.95;100775.75;5052865;28;20082;-53
2022/04/25 02:16:21;;;;;;;24.33;14.57;;;;;;;5.74;87.41;100780.72;5035000;28;20032;-52
2022/04/25 02:18:46;;;;;;;23.85;14.60;;;;;;;5.75;86.82;100787.88;5035557;28;20029;-53
2022/04/25 02:21:12;;;;;;;25.90;15.75;;;;;;;5.70;88.24;100774.13;5053196;28;20047;-54
2022/04/25 02:23:38;;;;;;;25.35;15.48;;;;;;;5.63;87.15;100774.41;5052887;28;20107;-54
2022/04/25 02:26:07;;;;;;;24.25;15.93;;;;;;;5.60;87.56;100782.34;5103124;22;20112;-57
2022/04/25 02:28:34;;;;;;;26.08;15.35;;;;;;;5.57;87.87;100774.69;5113803;28;20042;-59
2022/04/25 02:31:00;;;;;;;25.45;15.13;;;;;;;5.51;88.38;100773.88;5114249;28;20024;-58
2022/04/25 02:33:25;;;;;;;25.23;15.13;;;;;;;5.51;88.62;100765.63;5113868;28;20027;-58
2022/04/25 02:35:50;;;;;;;25.52;15.30;;;;;;;5.48;89.27;100766.16;5113476;28;20175;-58
2022/04/25 02:38:16;;;;;;;22.92;14.48;;;;;;;5.54;88.08;100767.00;5113366;28;20022;-59
2022/04/25 02:40:41;;;;;;;24.55;14.75;;;;;;;5.52;87.73;100761.78;5113323;28;20077;-58
2022/04/25 02:43:06;;;;;;;26.02;15.60;;;;;;;5.51;87.98;100770.28;5113328;28;20445;-59
2022/04/25 02:45:32;;;;;;;26.50;15.95;;;;;;;5.45;88.75;100774.94;5113489;28;20038;-58
2022/04/25 02:47:57;;;;;;;26.13;15.60;;;;;;;5.37;88.88;100773.59;5113504;28;20016;-58
2022/04/25 02:50:22;;;;;;;26.15;15.80;;;;;;;5.34;88.60;100767.81;5113229;28;20059;-58
2022/04/25 02:52:51;;;;;;;27.13;16.05;;;;;;;5.33;88.80;100769.72;5113025;28;20034;-58
2022/04/25 02:55:16;;;;;;;24.52;15.77;;;;;;;5.30;89.00;100764.78;5112889;28;20024;-57
2022/04/25 02:57:41;;;;;;;26.65;16.27;;;;;;;5.29;89.35;100763.16;5112473;28;20016;-58
2022/04/25 03:00:07;;;;;;;25.10;16.13;;;;;;;5.31;88.77;100769.16;5113061;28;20051;-57
2022/04/25 03:02:32;;;;;;;26.85;16.65;;;;;;;5.37;88.71;100767.25;5113440;28;20426;-58
2022/04/25 03:04:57;;;;;;;26.73;16.70;;;;;;;5.37;88.74;100768.09;5113204;28;20028;-58
2022/04/25 03:07:23;;;;;;;28.00;15.50;;;;;;;5.28;89.05;100762.31;5094858;28;20468;-58
2022/04/25 03:09:48;;;;;;;26.00;15.50;;;;;;;5.23;88.73;100765.06;5113475;28;20037;-57
2022/04/25 03:12:13;;;;;;;24.33;15.43;;;;;;;5.27;88.18;100768.91;5112956;28;20330;-59
2022/04/25 03:14:38;;;;;;;27.20;16.10;;;;;;;5.29;87.99;100771.38;5113451;28;20034;-58
2022/04/25 03:17:04;;;;;;;26.75;16.67;;;;;;;5.27;87.95;100773.56;5113301;28;20379;-58
2022/04/25 03:19:30;;;;;;;24.65;15.95;;;;;;;5.25;87.89;100770.28;5113590;28;20035;-58
2022/04/25 03:21:55;;;;;;;24.42;16.40;;;;;;;5.25;87.58;100768.34;5113102;28;20028;-59
2022/04/25 03:24:20;;;;;;;25.73;16.40;;;;;;;5.23;88.29;100769.72;5113283;28;20034;-59
2022/04/25 03:26:46;;;;;;;25.58;14.98;;;;;;;5.21;87.96;100769.16;5113074;28;20475;-58
2022/04/25 03:29:13;;;;;;;24.63;15.68;;;;;;;5.10;89.18;100780.09;5112375;28;20023;-58
2022/04/25 03:31:38;;;;;;;26.98;15.25;;;;;;;5.13;89.24;100778.75;5112806;28;20028;-58
2022/04/25 03:34:04;;;;;;;27.02;16.70;;;;;;;5.07;89.27;100777.91;5113024;28;20019;-57
2022/04/25 03:36:31;;;;;;;25.15;15.65;;;;;;;5.08;89.06;100781.47;5112726;28;20156;-57
2022/04/25 03:38:57;;;;;;;30.15;16.40;;;;;;;5.11;89.11;100778.19;5112289;28;20114;-58
2022/04/25 03:41:22;;;;;;;24.10;15.82;;;;;;;5.08;88.98;100778.72;5111898;28;20099;-57
2022/04/25 03:43:47;;;;;;;27.42;16.52;;;;;;;5.07;88.91;100777.91;5112128;28;20494;-57
2022/04/25 03:46:13;;;;;;;29.40;20.52;;;;;;;5.09;89.02;100786.72;5112528;28;20027;-58
2022/04/25 03:48:41;;;;;;;26.63;15.40;;;;;;;5.15;88.64;100782.88;5111516;28;20016;-56
2022/04/25 03:51:07;;;;;;;27.02;16.02;;;;;;;5.17;88.60;100787.25;5111934;28;20083;-56
2022/04/25 03:53:32;;;;;;;28.20;16.80;;;;;;;5.11;88.41;100784.50;5112482;28;20024;-57
2022/04/25 03:58:41;;;;;;;25.80;17.20;;;;;;;5.04;88.45;100788.59;5113093;28;20042;-55
2022/04/25 04:01:06;;;;;;;25.67;15.82;;;;;;;5.01;89.46;100789.94;5115018;28;20028;-55
2022/04/25 04:03:35;;;;;;;27.00;16.48;;;;;;;4.92;90.12;100783.34;5115685;28;20019;-54
2022/04/25 04:06:01;;;;;;;26.05;17.15;;;;;;;4.81;90.28;100787.97;5115714;28;20028;-54
2022/04/25 04:08:26;;;;;;;27.35;17.65;;;;;;;4.77;90.56;100793.19;5116042;28;20038;-58
2022/04/25 04:10:51;;;;;;;29.08;17.60;;;;;;;4.69;91.21;100791.75;5115874;28;20036;-57
2022/04/25 04:13:17;;;;;;;29.33;18.15;;;;;;;4.65;91.27;100798.91;5116277;28;20110;-58
2022/04/25 04:15:42;;;;;;;27.80;17.48;;;;;;;4.66;91.01;100802.44;5116583;28;20027;-58
2022/04/25 04:18:08;;;;;;;30.23;18.92;;;;;;;4.61;91.87;100796.94;5115457;28;20479;-56
2022/04/25 04:20:33;;;;;;;28.80;17.48;;;;;;;4.63;92.30;100805.75;5115477;28;20034;-55
2022/04/25 04:22:59;;;;;;;30.15;17.35;;;;;;;4.64;91.48;100801.88;5115864;28;20495;-57
2022/04/25 04:25:24;;;;;;;29.10;18.50;;;;;;;4.59;92.73;100813.63;5115871;28;20047;-57
2022/04/25 04:27:49;;;;;;;28.67;18.55;;;;;;;4.57;92.78;100813.09;5115214;28;20024;-56
2022/04/25 04:30:15;;;;;;;27.50;18.92;;;;;;;4.56;92.65;100805.13;5114688;28;20027;-56
2022/04/25 04:32:41;;;;;;;28.88;22.15;;;;;;;4.65;92.31;100817.22;5115914;28;20036;-57
2022/04/25 04:35:09;;;;;;;28.00;18.77;;;;;;;4.64;92.70;100805.47;5115318;28;20032;-57
2022/04/25 04:37:35;;;;;;;28.88;18.95;;;;;;;4.67;92.97;100812.31;5115403;28;20034;-57
2022/04/25 04:42:46;;;;;;;27.05;18.23;;;;;;;4.76;93.28;100815.38;5116088;28;20062;-57
2022/04/25 04:45:12;;;;;;;29.02;19.80;;;;;;;4.80;92.68;100821.97;5115196;28;20114;-57
2022/04/25 04:47:39;;;;;;;28.45;19.30;;;;;;;4.84;92.85;100812.94;5115411;28;20028;-57
2022/04/25 04:50:06;;;;;;;35.30;19.65;;;;;;;4.89;92.75;100831.31;5114852;28;20043;-56
2022/04/25 04:52:32;;;;;;;26.98;18.27;;;;;;;4.93;92.32;100826.97;5115338;28;20038;-58
2022/04/25 04:54:57;;;;;;;28.30;19.02;;;;;;;4.94;92.75;100822.28;5115425;28;20023;-57
2022/04/25 04:57:22;;;;;;;29.10;19.55;;;;;;;4.97;92.78;100827.25;5096790;28;20415;-58
2022/04/25 04:59:48;;;;;;;29.77;20.52;;;;;;;5.07;92.36;100829.19;5115082;28;20027;-58
2022/04/25 05:02:15;;;;;;;30.60;18.50;;;;;;;5.11;93.08;100836.59;5114908;28;20081;-58
2022/04/25 05:04:40;;;;;;;30.30;18.95;;;;;;;5.18;91.69;100835.53;5115107;28;20031;-58
2022/04/25 05:07:06;;;;;;;28.60;19.58;;;;;;;5.26;91.43;100837.75;5114893;28;20130;-57
2022/04/25 05:09:31;;;;;;;29.25;19.50;;;;;;;5.29;91.91;100840.78;5114540;28;20102;-58
2022/04/25 05:11:56;;;;;;;29.63;18.73;;;;;;;5.42;91.55;100850.41;5113963;28;20030;-58
2022/04/25 05:14:21;;;;;;;28.98;19.33;;;;;;;5.50;91.64;100849.06;5115530;28;20032;-59
2022/04/25 05:16:47;;;;;;;28.67;19.17;;;;;;;5.55;92.18;100848.22;5114653;28;20388;-57
2022/04/25 05:19:12;;;;;;;29.67;18.67;;;;;;;5.64;91.41;100854.84;5114875;28;20066;-59
2022/04/25 05:21:38;;;;;;;27.48;18.77;;;;;;;5.75;91.89;100852.91;5115148;28;20031;-57
2022/04/25 05:24:04;;;;;;;28.88;17.90;;;;;;;5.83;90.99;100859.78;5096235;28;20439;-58
2022/04/25 05:26:29;;;;;;;28.83;18.83;;;;;;;5.82;91.29;100858.94;5114720;28;20088;-58
2022/04/25 05:28:54;;;;;;;27.48;17.92;;;;;;;5.87;91.16;100864.47;5115019;28;20093;-58
2022/04/25 05:31:19;;;;;;;29.67;18.35;;;;;;;5.97;90.90;100860.06;5114883;28;20373;-58
2022/04/25 05:33:44;;;;;;;30.90;19.15;;;;;;;6.07;90.88;100865.59;5114868;28;20027;-59
2022/04/25 05:36:10;;;;;;;27.90;18.13;;;;;;;6.18;89.62;100872.72;5114520;28;20034;-58
2022/04/25 05:38:37;;;;;;;28.75;18.20;;;;;;;6.24;90.15;100871.63;5114394;28;20370;-58
2022/04/25 05:41:02;;;;;;;27.70;17.45;;;;;;;6.31;89.96;100862.25;5114538;28;20028;-58
2022/04/25 05:43:27;;;;;;;27.27;18.83;;;;;;;6.33;90.11;100882.84;5114772;28;20026;-58
2022/04/25 05:45:53;;;;;;;28.00;20.10;;;;;;;6.39;90.14;100887.25;5114630;28;20504;-57
2022/04/25 05:53:46;;;;;;;30.02;19.38;;;;;;;6.46;89.94;100884.25;5114610;28;20050;-56
2022/04/25 05:56:11;;;;;;;31.17;21.05;;;;;;;6.47;89.76;100893.28;5114571;28;20407;-58
2022/04/25 05:58:36;;;;;;;29.25;20.05;;;;;;;6.43;90.04;100892.19;5113946;28;20055;-56
2022/04/25 06:01:02;;;;;;;29.02;20.60;;;;;;;6.42;90.21;100888.63;5114032;28;20027;-58
2022/04/25 06:03:28;;;;;;;30.25;20.05;;;;;;;6.45;90.17;100895.47;5114480;28;20414;-56
2022/04/25 06:05:54;;;;;;;29.33;19.27;;;;;;;6.52;90.02;100898.75;5114879;28;20026;-58
2022/04/25 06:08:19;;;;;;;30.13;20.02;;;;;;;6.54;90.62;100896.56;5114926;28;20023;-58
2022/04/25 06:10:45;;;;;;;28.50;20.05;;;;;;;6.61;89.43;100894.38;5114336;28;20043;-58
2022/04/25 06:13:10;;;;;;;30.25;20.35;;;;;;;6.63;90.15;100883.91;5114544;28;20111;-57
2022/04/25 06:15:35;;;;;;;29.33;19.70;;;;;;;6.67;90.20;100896.00;5114556;28;20376;-58
2022/04/25 06:18:01;;;;;;;32.35;20.50;;;;;;;6.72;90.01;100897.91;5114542;28;20086;-57
2022/04/25 06:20:30;;;;;;;29.45;20.15;;;;;;;6.82;89.67;100897.88;5114180;28;20383;-57
2022/04/25 06:22:58;;;;;;;30.80;19.95;;;;;;;6.88;89.20;100890.44;5112811;28;20020;-56
2022/04/25 06:25:26;;;;;;;31.92;19.92;;;;;;;6.92;89.03;100898.97;5112919;28;20135;-56
2022/04/25 06:27:51;;;;;;;29.75;19.83;;;;;;;6.95;89.01;100892.88;5113982;28;20387;-57
2022/04/25 06:30:17;;;;;;;32.08;21.58;;;;;;;7.07;89.45;100904.41;5115922;27;20098;-56
2022/04/25 06:32:42;;;;;;;30.60;20.50;;;;;;;7.19;89.07;100901.31;5132258;27;20359;-57
2022/04/25 06:35:08;;;;;;;30.73;19.73;;;;;;;7.27;88.34;100903.50;5132044;27;20391;-57
2022/04/25 06:37:33;;;;;;;33.60;22.95;;;;;;;7.24;88.13;100915.06;5132173;27;20108;-56
2022/04/25 06:39:58;;;;;;;30.63;20.73;;;;;;;7.27;87.98;100909.00;5132248;27;20031;-57
2022/04/25 06:42:25;;;;;;;31.13;20.08;;;;;;;7.26;88.23;100912.88;5132052;27;20643;-57
2022/04/25 06:44:50;;;;;;;30.38;21.20;;;;;;;7.35;88.07;100910.31;5132280;27;20424;-57
2022/04/25 06:47:15;;;;;;;33.30;22.63;;;;;;;7.37;87.83;100915.56;5131247;27;20085;-56
2022/04/25 06:49:40;;;;;;;31.55;20.70;;;;;;;7.40;88.32;100914.97;5131033;27;20052;-57
2022/04/25 06:52:08;;;;;;;31.52;20.70;;;;;;;7.45;87.82;100917.72;5131961;27;20432;-56
2022/04/25 06:54:41;;;;;;;32.17;24.80;;;;;;;7.26;89.13;100914.78;5122920;27;20412;-55
2022/04/25 06:57:07;;;;;;;32.60;22.67;;;;;;;7.42;88.69;100913.59;5108458;28;20111;-58
2022/04/25 06:59:32;;;;;;;32.58;21.42;;;;;;;7.48;87.63;100919.88;5108213;28;20081;-57
2022/04/25 07:01:57;;;;;;;31.20;21.80;;;;;;;7.49;88.00;100918.78;5108278;28;20067;-58
2022/04/25 07:04:23;;;;;;;31.15;22.45;;;;;;;7.52;87.64;100920.16;5108186;28;20028;-57
2022/04/25 07:06:48;;;;;;;31.52;21.85;;;;;;;7.53;87.53;100921.78;5108358;28;20028;-56
2022/04/25 07:09:14;;;;;;;34.65;22.27;;;;;;;7.46;87.89;100927.63;5108218;28;20028;-57
2022/04/25 07:11:43;;;;;;;33.78;21.30;;;;;;;7.42;87.80;100921.84;5108021;28;20028;-58
2022/04/25 07:14:18;;;;;;;32.22;21.58;;;;;;;7.48;87.52;100926.25;5108060;28;20024;-56
2022/04/25 07:16:45;;;;;;;31.08;21.67;;;;;;;7.45;88.72;100923.22;5107972;28;20427;-57
2022/04/25 07:19:12;;;;;;;34.00;21.60;;;;;;;7.45;89.63;100937.81;5108045;28;20122;-57
2022/04/25 07:29:49;;;;;;;33.17;23.10;;;;;;;7.16;92.42;100932.97;5087963;28;20042;-56
2022/04/25 07:32:15;;;;;;;32.90;22.98;;;;;;;7.14;92.91;100932.44;5087309;28;20062;-57
2022/04/25 07:34:42;;;;;;;33.83;24.02;;;;;;;7.16;92.76;100943.97;5087353;28;20096;-58
2022/04/25 07:37:08;;;;;;;33.42;23.13;;;;;;;7.13;93.35;100946.47;5087512;28;20035;-57
2022/04/25 07:39:33;;;;;;;34.63;24.10;;;;;;;7.13;93.34;100946.47;5087562;28;20032;-58
2022/04/25 07:41:59;;;;;;;35.95;25.65;;;;;;;7.05;94.51;100960.81;5087305;28;20103;-58
2022/04/25 07:44:26;;;;;;;33.40;25.55;;;;;;;7.05;94.19;100955.31;5087356;28;20078;-58
2022/04/25 07:46:51;;;;;;;37.00;23.60;;;;;;;7.04;94.33;100959.97;5087307;28;20040;-57
2022/04/25 07:49:17;;;;;;;36.72;24.63;;;;;;;7.05;94.67;100958.06;5087096;28;20024;-57
2022/04/25 07:51:42;;;;;;;33.08;23.90;;;;;;;7.06;94.29;100963.25;5087204;28;20032;-58
2022/04/25 07:54:09;;;;;;;33.30;23.58;;;;;;;7.07;94.73;100969.63;5086996;28;20621;-58
2022/04/25 07:56:35;;;;;;;34.63;24.02;;;;;;;7.10;95.22;100961.63;5087284;28;20031;-57
2022/04/25 07:59:01;;;;;;;35.22;24.08;;;;;;;7.03;94.69;100969.34;5086761;28;20394;-58
2022/04/25 08:01:27;;;;;;;34.92;24.50;;;;;;;7.05;94.78;100978.13;5086965;28;20060;-57
2022/04/25 08:03:54;;;;;;;39.45;26.73;;;;;;;7.08;95.39;100971.25;5085687;28;20063;-57
2022/04/25 08:06:20;;;;;;;34.90;24.73;;;;;;;7.08;96.07;100974.00;5073196;28;20089;-58
2022/04/25 08:08:49;;;;;;;33.60;24.55;;;;;;;7.08;95.77;100974.00;5073310;28;20035;-56
2022/04/25 08:11:15;;;;;;;34.42;23.92;;;;;;;7.08;95.75;100980.31;5073355;28;20024;-58
2022/04/25 08:19:08;;;;;;;35.42;25.85;;;;;;;7.08;95.96;100982.25;5073177;28;20522;-57
2022/04/25 08:21:33;;;;;;;36.25;25.33;;;;;;;7.07;97.28;100983.38;5071322;28;20032;-57
2022/04/25 08:23:59;;;;;;;37.28;25.42;;;;;;;7.05;98.14;100988.31;5064688;28;20079;-57
2022/04/25 08:26:25;;;;;;;37.35;25.08;;;;;;;7.09;97.11;100986.63;5061385;28;20053;-58
2022/04/25 08:28:51;;;;;;;36.63;25.90;;;;;;;7.14;97.97;100992.16;5052819;28;20021;-57
2022/04/25 08:31:16;;;;;;;35.00;24.08;;;;;;;7.19;96.37;100994.88;5071740;28;20036;-57
2022/04/25 08:33:43;;;;;;;36.72;25.92;;;;;;;7.23;97.31;100995.97;5072363;28;20040;-57
2022/04/25 08:36:08;;;;;;;36.33;26.23;;;;;;;7.28;98.15;101006.94;5072895;28;20107;-57
2022/04/25 08:38:34;;;;;;;35.58;25.88;;;;;;;7.33;97.60;101003.34;5073040;28;20155;-57
2022/04/25 08:41:00;;;;;;;38.97;27.33;;;;;;;7.38;98.10;101002.50;5072600;28;20017;-57
2022/04/25 08:43:26;;;;;;;36.83;26.13;;;;;;;7.39;97.91;101004.16;5072436;28;20033;-57
2022/04/25 08:45:53;;;;;;;39.47;26.77;;;;;;;7.45;96.89;101006.63;5072548;28;20032;-57
2022/04/25 08:48:21;;;;;;;38.67;25.77;;;;;;;7.46;97.94;101013.78;5072527;28;20020;-57
2022/04/25 08:50:49;;;;;;;37.08;25.88;;;;;;;7.42;97.26;100996.16;5072167;28;20056;-55
2022/04/25 08:53:16;;;;;;;37.88;26.75;;;;;;;7.53;97.25;101009.88;5070167;28;20080;-56
2022/04/25 08:55:41;;;;;;;35.95;25.55;;;;;;;7.56;98.03;101015.66;5072283;28;20028;-57
2022/04/25 08:58:06;;;;;;;35.42;25.20;;;;;;;7.61;97.03;101010.13;5072113;28;20021;-57
2022/04/25 09:00:32;;;;;;;37.67;26.15;;;;;;;7.69;97.56;101019.75;5072138;28;20032;-57
2022/04/25 09:02:57;;;;;;;37.05;25.35;;;;;;;7.69;96.34;101027.19;5071549;28;20020;-57
2022/04/25 09:05:23;;;;;;;35.83;24.85;;;;;;;7.68;95.97;101023.63;5072020;28;20033;-57
2022/04/25 09:07:48;;;;;;;34.30;23.80;;;;;;;7.68;96.19;101026.38;5071835;28;20479;-57
2022/04/25 09:10:15;;;;;;;32.72;23.63;;;;;;;7.67;95.94;101026.63;5071948;28;20024;-57
2022/04/25 09:12:42;;;;;;;34.95;24.02;;;;;;;7.67;96.51;101030.22;5072071;28;20032;-57
2022/04/25 09:15:09;;;;;;;33.85;24.10;;;;;;;7.74;96.33;101029.94;5072196;28;20021;-57
2022/04/25 09:17:38;;;;;;;36.13;24.48;;;;;;;7.82;96.63;101034.84;5070966;28;20024;-58
2022/04/25 09:20:07;;;;;;;34.35;24.45;;;;;;;7.85;96.11;101042.50;5071666;28;20045;-57
2022/04/25 09:22:35;;;;;;;33.53;24.05;;;;;;;7.89;95.89;101040.00;5069127;28;20043;-58
2022/04/25 09:25:19;;;;;;;33.13;23.58;;;;;;;7.95;95.27;101045.22;5073610;28;20048;-57
2022/04/25 09:27:47;;;;;;;31.92;22.05;;;;;;;7.97;95.26;101042.19;5073861;28;20476;-58
2022/04/25 09:30:16;;;;;;;30.00;20.50;;;;;;;7.99;94.13;101050.19;5073775;28;20158;-58
2022/04/25 09:32:43;;;;;;;31.45;21.17;;;;;;;7.99;94.20;101050.19;5073547;28;20031;-58
2022/04/25 09:35:30;;;;;;;30.67;22.63;;;;;;;7.98;93.82;101052.13;5072082;28;20490;-57
2022/04/25 09:37:57;;;;;;;31.80;21.25;;;;;;;8.00;94.45;101052.63;5073533;28;20021;-59
2022/04/25 09:40:24;;;;;;;30.25;21.65;;;;;;;7.96;93.11;101055.13;5073566;28;20032;-57
2022/04/25 09:43:07;;;;;;;31.00;21.33;;;;;;;7.96;93.75;101057.09;5073400;28;20033;-58
2022/04/25 09:45:33;;;;;;;30.30;21.43;;;;;;;7.94;93.42;101056.53;5073163;28;20035;-57
2022/04/25 09:47:59;;;;;;;29.50;20.60;;;;;;;7.89;93.55;101060.13;5073867;28;20024;-58
2022/04/25 09:50:28;;;;;;;31.33;22.20;;;;;;;7.83;94.07;101065.94;5073148;28;20024;-57
2022/04/25 09:53:00;;;;;;;28.77;20.38;;;;;;;7.80;94.45;101076.41;5072980;28;20113;-58
2022/04/25 09:55:28;;;;;;;29.70;20.83;;;;;;;7.78;94.57;101059.38;5073179;28;20423;-58
2022/04/25 09:57:54;;;;;;;30.77;20.92;;;;;;;7.83;94.66;101080.56;5073327;28;20029;-58
2022/04/25 10:00:30;;;;;;;30.05;20.67;;;;;;;7.88;94.60;101074.22;5072897;28;20021;-57
2022/04/25 10:02:57;;;;;;;30.70;22.02;;;;;;;7.87;93.50;101086.31;5073274;28;20036;-58
2022/04/25 10:05:22;;;;;;;31.75;22.67;;;;;;;7.87;94.40;101075.31;5073086;28;20021;-58
2022/04/25 10:07:51;;;;;;;32.00;21.85;;;;;;;7.85;94.78;101072.81;5072755;28;20441;-57
2022/04/25 10:10:17;;;;;;;32.50;22.33;;;;;;;7.97;95.25;101089.03;5073145;28;20025;-58
2022/04/25 10:12:42;;;;;;;31.65;21.83;;;;;;;8.00;94.14;101076.63;5072827;28;20570;-58
2022/04/25 10:15:08;;;;;;;31.88;22.33;;;;;;;8.05;94.06;101082.09;5072935;28;20032;-57
2022/04/25 10:17:40;;;;;;;31.33;22.13;;;;;;;8.16;94.44;101088.41;5073045;28;20060;-57
2022/04/25 10:20:08;;;;;;;31.20;21.63;;;;;;;8.28;94.21;101083.34;5073059;28;20032;-58
2022/04/25 10:22:35;;;;;;;30.52;21.77;;;;;;;8.36;93.86;101088.25;5072877;28;20067;-58
2022/04/25 10:25:01;;;;;;;28.60;20.40;;;;;;;8.26;90.91;101091.91;5072858;28;20094;-58
2022/04/25 10:27:30;;;;;;;30.13;21.67;;;;;;;8.25;92.01;101090.25;5072526;28;20021;-58
2022/04/25 10:30:00;;;;;;;31.08;20.58;;;;;;;8.20;92.39;101087.53;5072901;28;20036;-57
2022/04/25 10:32:25;;;;;;;30.63;21.17;;;;;;;8.30;91.50;101094.91;5072577;28;20113;-58
2022/04/25 10:35:00;;;;;;;30.35;20.30;;;;;;;8.36;91.11;101098.47;5072793;28;20048;-58
2022/04/25 10:37:37;;;;;;;28.63;20.40;;;;;;;8.32;90.98;101094.63;5072460;28;20368;-58
2022/04/25 10:40:13;;;;;;;29.83;21.25;;;;;;;8.35;91.29;101100.41;5072492;28;20089;-57
2022/04/25 10:45:58;;;;;;;30.60;20.92;;;;;;;8.42;91.10;101108.34;5072602;28;20125;-57
2022/04/25 10:48:24;;;;;;;32.40;22.33;;;;;;;8.45;90.96;101107.78;5072592;28;20024;-57
2022/04/25 10:51:16;;;;;;;29.48;20.60;;;;;;;8.45;90.09;101115.25;5072275;28;20025;-57
2022/04/25 10:53:59;;;;;;;32.13;21.67;;;;;;;8.37;90.25;101105.63;5072377;28;20073;-57
2022/04/25 10:56:26;;;;;;;31.50;22.00;;;;;;;8.19;89.74;101115.38;5066914;28;20087;-55
2022/04/25 10:59:20;;;;;;;34.55;23.08;;;;;;;8.10;90.39;101115.16;5050111;28;20656;-56
2022/04/25 11:01:46;;;;;;;;;;;;;;;8.14;89.50;101118.16;5049982;28;20044;-57
2022/04/25 11:04:13;;;;;;;34.35;22.45;;;;;;;8.10;91.78;101115.16;5050500;28;20020;-56
2022/04/25 11:06:39;;;;;;;33.55;22.70;;;;;;;8.10;90.74;101124.22;5050260;28;20556;-56
2022/04/25 11:09:05;;;;;;;32.03;22.40;;;;;;;8.04;91.74;101130.88;5050207;28;20540;-56
2022/04/25 11:11:49;;;;;;;33.33;22.85;;;;;;;8.04;91.24;101130.03;5050448;28;20040;-57
2022/04/25 11:14:15;;;;;;;33.87;23.83;;;;;;;8.08;92.24;101131.13;5049170;28;20059;-56
2022/04/25 11:16:41;;;;;;;34.53;25.50;;;;;;;8.12;91.00;101138.56;5048139;28;20373;-56
2022/04/25 11:19:10;;;;;;;33.22;22.95;;;;;;;8.20;92.30;101126.13;5048514;28;20351;-56
2022/04/25 11:21:40;;;;;;;34.55;24.13;;;;;;;8.36;90.74;101126.84;5050054;28;20083;-57
2022/04/25 11:24:28;;;;;;;34.13;22.92;;;;;;;8.57;90.52;101119.31;5050376;28;20029;-56
2022/04/25 11:26:55;;;;;;;36.42;25.48;;;;;;;8.83;90.62;101130.16;5050001;28;20062;-55
2022/04/25 11:29:21;;;;;;;35.47;23.00;;;;;;;8.92;88.30;101129.56;5050286;28;20083;-57
2022/04/25 11:31:46;;;;;;;33.42;23.40;;;;;;;8.95;87.84;101135.31;5050079;28;20021;-56
2022/04/25 11:34:12;;;;;;;32.85;23.88;;;;;;;8.86;86.37;101139.81;5049855;28;20029;-56
2022/04/25 11:36:43;;;;;;;32.67;22.80;;;;;;;8.81;87.41;101132.38;5049956;28;20395;-56
2022/04/25 11:41:55;;;;;;;33.83;23.92;;;;;;;8.74;88.38;101143.75;5054054;28;20043;-59
2022/04/25 11:44:21;;;;;;;35.75;24.88;;;;;;;8.68;88.03;101150.41;5053689;28;20053;-54
2022/04/25 11:46:47;;;;;;;34.72;24.02;;;;;;;8.69;88.55;101149.31;5053626;28;20432;-57
2022/04/25 11:49:25;;;;;;;32.90;22.95;;;;;;;8.75;88.92;101147.34;5053743;28;20021;-57